Time;durP1;ratioP1;P1;durP2;ratioP2;P2;SDS_P1;SDS_P2;PMS_P1;PMS_P2;Temp;Humidity;BMP_temperature;BMP_pressure;BME280_temperature;BME280_humidity;BME280_pressure;Samples;Min_cycle;Max_cycle;Signal;HPM_P1;HPM_P2
2021/12/05 00:20:37;;;;;;;14.57;2.90;;;7.60;99.90;;;;;;4991865;28;20058;-80
2021/12/05 00:23:12;;;;;;;19.58;4.63;;;7.50;99.90;;;;;;4973011;28;20051;-81
2021/12/05 00:25:41;;;;;;;17.38;4.80;;;7.50;99.90;;;;;;4972776;28;20082;-81
2021/12/05 00:39:57;;;;;;;9.43;1.95;;;7.60;99.90;;;;;;4993515;28;20301;-79
2021/12/05 01:16:34;;;;;;;13.43;3.50;;;7.60;99.90;;;;;;4999328;28;20046;-80
2021/12/05 01:19:02;;;;;;;17.85;2.03;;;7.60;99.90;;;;;;4996748;28;20066;-79
2021/12/05 01:21:29;;;;;;;19.92;2.28;;;7.60;99.90;;;;;;4994629;28;20097;-80
2021/12/05 01:24:10;;;;;;;13.27;1.90;;;7.70;99.90;;;;;;4990809;28;20050;-78
2021/12/05 01:32:06;;;;;;;19.48;3.00;;;7.60;99.90;;;;;;4993586;28;20042;-79
2021/12/05 01:37:55;;;;;;;18.38;2.55;;;7.60;99.90;;;;;;4979434;28;20504;-80
2021/12/05 01:49:01;;;;;;;20.00;2.47;;;7.50;99.90;;;;;;4978258;28;20514;-80
2021/12/05 01:59:24;;;;;;;18.33;2.33;;;7.60;99.90;;;;;;4997620;28;20506;-81
2021/12/05 02:30:11;;;;;;;15.60;2.28;;;7.70;99.90;;;;;;4979893;28;20499;-79
2021/12/05 02:38:32;;;;;;;19.77;2.40;;;7.70;99.90;;;;;;4976288;28;20110;-79
2021/12/05 02:41:09;;;;;;;16.15;1.90;;;7.80;99.90;;;;;;4975416;28;20105;-79
2021/12/05 02:43:42;;;;;;;12.35;1.45;;;7.80;99.90;;;;;;4983508;28;20066;-81
2021/12/05 02:46:13;;;;;;;14.27;2.63;;;7.80;99.90;;;;;;4993316;28;20050;-81
2021/12/05 02:48:42;;;;;;;13.90;2.17;;;7.80;99.90;;;;;;4992597;28;20053;-79
2021/12/05 02:51:15;;;;;;;19.42;2.78;;;7.90;99.90;;;;;;4994105;28;20058;-82
2021/12/05 02:53:48;;;;;;;20.85;2.75;;;7.90;99.90;;;;;;4994235;28;20043;-79
2021/12/05 02:56:16;;;;;;;10.35;2.13;;;7.80;99.90;;;;;;4994788;28;20046;-79
2021/12/05 02:58:50;;;;;;;13.20;2.47;;;7.90;99.90;;;;;;4993718;28;20066;-85
2021/12/05 03:01:34;;;;;;;14.55;2.28;;;7.80;99.90;;;;;;5002412;28;20462;-82
2021/12/05 03:04:01;;;;;;;22.77;2.50;;;7.80;99.90;;;;;;4999820;28;20042;-83
2021/12/05 03:06:32;;;;;;;17.42;2.25;;;7.80;99.90;;;;;;4997776;28;20507;-84
2021/12/05 03:09:14;;;;;;;26.20;3.15;;;7.80;99.90;;;;;;4990040;28;20098;-80
2021/12/05 03:11:43;;;;;;;25.88;2.97;;;7.80;99.90;;;;;;4979660;28;20085;-79
2021/12/05 03:14:10;;;;;;;16.58;2.42;;;7.80;99.90;;;;;;4992714;28;20073;-79
2021/12/05 03:16:40;;;;;;;26.67;2.92;;;7.90;99.90;;;;;;4993109;28;20531;-79
2021/12/05 03:19:09;;;;;;;25.55;3.50;;;8.00;99.90;;;;;;4992204;28;20046;-79
2021/12/05 03:21:38;;;;;;;26.80;3.33;;;8.00;99.90;;;;;;4996441;28;20053;-81
2021/12/05 03:24:06;;;;;;;20.45;2.75;;;7.90;99.90;;;;;;4994590;28;20051;-78
2021/12/05 03:26:37;;;;;;;28.85;3.33;;;7.90;99.90;;;;;;4994223;28;20046;-80
2021/12/05 03:29:07;;;;;;;28.92;3.50;;;7.90;99.90;;;;;;4991198;28;20494;-79
2021/12/05 03:31:35;;;;;;;14.35;2.47;;;8.00;99.90;;;;;;4992174;28;20486;-78
2021/12/05 03:34:04;;;;;;;18.35;3.03;;;8.00;99.90;;;;;;4991514;28;20046;-78
2021/12/05 03:36:32;;;;;;;23.38;2.72;;;8.00;99.90;;;;;;4990913;28;20051;-81
2021/12/05 03:38:59;;;;;;;21.25;4.00;;;8.00;99.90;;;;;;4992315;28;20054;-80
2021/12/05 03:41:26;;;;;;;28.27;3.95;;;8.10;99.90;;;;;;4992557;28;20102;-81
2021/12/05 03:43:55;;;;;;;36.40;3.58;;;8.10;99.90;;;;;;4990549;28;20465;-81
2021/12/05 03:46:23;;;;;;;35.97;3.55;;;8.20;99.90;;;;;;4991831;28;20574;-82
2021/12/05 03:48:56;;;;;;;17.50;3.50;;;8.30;99.90;;;;;;4993093;28;20149;-79
2021/12/05 03:51:27;;;;;;;16.08;3.08;;;8.20;99.90;;;;;;4990583;28;20050;-80
2021/12/05 03:53:55;;;;;;;30.83;3.03;;;8.20;99.90;;;;;;4989918;28;20656;-79
2021/12/05 03:56:22;;;;;;;24.27;3.08;;;8.20;99.90;;;;;;4992102;28;20050;-79
2021/12/05 03:58:51;;;;;;;17.35;3.13;;;8.30;99.90;;;;;;4991913;28;20054;-79
2021/12/05 04:01:19;;;;;;;23.25;3.05;;;8.40;99.90;;;;;;4989624;28;20054;-79
2021/12/05 04:03:48;;;;;;;29.15;3.05;;;8.40;99.90;;;;;;4991856;28;20065;-80
2021/12/05 04:06:20;;;;;;;24.70;4.22;;;8.30;99.90;;;;;;4988527;28;20077;-79
2021/12/05 04:08:49;;;;;;;27.90;3.25;;;8.30;99.90;;;;;;4981404;28;20046;-78
2021/12/05 04:11:29;;;;;;;25.35;3.25;;;8.30;99.90;;;;;;4973741;28;20098;-80
2021/12/05 04:13:56;;;;;;;24.13;3.67;;;8.30;99.90;;;;;;4990475;28;20117;-79
2021/12/05 04:16:24;;;;;;;26.95;3.45;;;8.30;99.90;;;;;;4991892;28;20412;-78
2021/12/05 04:18:51;;;;;;;30.92;4.78;;;8.30;99.90;;;;;;4975025;28;20046;-79
2021/12/05 04:21:19;;;;;;;34.03;3.47;;;8.20;99.90;;;;;;4992732;28;20573;-79
2021/12/05 04:23:47;;;;;;;36.05;4.68;;;8.30;99.90;;;;;;4991749;28;20054;-79
2021/12/05 04:26:15;;;;;;;25.08;2.97;;;8.30;99.90;;;;;;4992320;28;20082;-80
2021/12/05 04:28:43;;;;;;;29.33;4.22;;;8.40;99.90;;;;;;4996961;28;20050;-79
2021/12/05 04:31:10;;;;;;;24.25;3.10;;;8.40;99.90;;;;;;4995322;28;20054;-79
2021/12/05 04:33:38;;;;;;;24.77;3.58;;;8.40;99.90;;;;;;4993857;28;20046;-79
2021/12/05 04:36:06;;;;;;;25.45;3.13;;;8.40;99.90;;;;;;4994796;28;20050;-79
2021/12/05 04:38:34;;;;;;;33.30;3.67;;;8.40;99.90;;;;;;4995159;28;20047;-79
2021/12/05 04:41:02;;;;;;;30.35;4.40;;;8.40;99.90;;;;;;4995651;28;20050;-81
2021/12/05 04:43:37;;;;;;;28.95;4.32;;;8.40;99.90;;;;;;4993004;28;20462;-80
2021/12/05 04:46:25;;;;;;;28.52;3.47;;;8.40;99.90;;;;;;4996120;28;20106;-79
2021/12/05 04:48:55;;;;;;;28.25;3.00;;;8.40;99.90;;;;;;4995355;28;20092;-80
2021/12/05 04:51:27;;;;;;;31.02;4.63;;;8.40;99.90;;;;;;4992198;28;20136;-80
2021/12/05 04:53:55;;;;;;;25.52;3.85;;;8.40;99.90;;;;;;4991547;28;20051;-78
2021/12/05 04:56:23;;;;;;;39.22;5.13;;;8.50;99.90;;;;;;4979238;28;20050;-79
2021/12/05 04:58:53;;;;;;;31.27;3.53;;;8.50;99.90;;;;;;5010061;28;20046;-79
2021/12/05 05:01:20;;;;;;;29.48;4.13;;;8.50;99.90;;;;;;4994547;28;20058;-80
2021/12/05 05:03:48;;;;;;;24.73;3.53;;;8.60;99.90;;;;;;4993346;28;20427;-78
2021/12/05 05:06:17;;;;;;;25.42;3.97;;;8.60;99.90;;;;;;4997652;28;20055;-79
2021/12/05 05:08:48;;;;;;;31.55;3.58;;;8.70;99.90;;;;;;4991664;28;20046;-80
2021/12/05 05:11:17;;;;;;;24.92;3.60;;;8.70;99.90;;;;;;4994943;28;20046;-80
2021/12/05 05:13:46;;;;;;;20.63;3.25;;;8.60;99.90;;;;;;4991539;28;20109;-77
2021/12/05 05:16:15;;;;;;;19.17;2.90;;;8.70;99.90;;;;;;4991855;28;20096;-80
2021/12/05 05:21:32;;;;;;;27.48;4.22;;;8.20;99.90;;;;;;4992427;28;20054;-80
2021/12/05 05:26:59;;;;;;;21.48;3.47;;;8.30;99.90;;;;;;4995316;28;20077;-80
2021/12/05 05:50:40;;;;;;;30.75;4.32;;;8.60;99.90;;;;;;4979264;28;20070;-78
2021/12/05 05:53:07;;;;;;;26.58;4.50;;;8.70;99.90;;;;;;4996165;28;20054;-77
2021/12/05 05:55:35;;;;;;;28.55;3.50;;;8.70;99.90;;;;;;5004582;28;20553;-82
2021/12/05 05:58:10;;;;;;;32.03;4.90;;;8.70;99.90;;;;;;4997506;28;20051;-83
2021/12/05 06:00:57;;;;;;;24.42;3.03;;;8.80;99.90;;;;;;4994842;28;20046;-79
2021/12/05 06:03:25;;;;;;;19.38;3.25;;;8.80;99.90;;;;;;4988697;28;20054;-79
2021/12/05 06:06:08;;;;;;;31.83;4.00;;;8.70;99.90;;;;;;4986476;28;20055;-80
2021/12/05 06:08:37;;;;;;;30.00;3.67;;;8.80;99.90;;;;;;4990311;28;20525;-78
2021/12/05 06:11:10;;;;;;;30.92;5.28;;;8.80;99.90;;;;;;4994474;28;20050;-78
2021/12/05 06:13:39;;;;;;;27.52;4.07;;;8.80;99.90;;;;;;4994733;28;20058;-80
2021/12/05 06:16:08;;;;;;;31.13;3.85;;;8.80;99.90;;;;;;4989720;28;20561;-78
2021/12/05 06:18:35;;;;;;;34.90;4.97;;;8.90;99.90;;;;;;4990715;28;20054;-80
2021/12/05 06:21:03;;;;;;;19.80;3.78;;;8.80;99.90;;;;;;4994127;28;20055;-78
2021/12/05 06:23:30;;;;;;;34.38;5.22;;;8.90;99.90;;;;;;4980435;28;20086;-80
2021/12/05 06:25:57;;;;;;;19.20;3.35;;;8.90;99.90;;;;;;5007113;28;20054;-78
2021/12/05 06:28:36;;;;;;;26.73;4.03;;;8.60;99.90;;;;;;4993201;28;20101;-79
2021/12/05 06:31:30;;;;;;;25.25;4.30;;;8.40;99.90;;;;;;4991268;28;20070;-79
2021/12/05 06:37:09;;;;;;;24.02;3.60;;;8.80;99.90;;;;;;4995137;28;20054;-78
2021/12/05 06:47:23;;;;;;;44.97;5.10;;;8.80;99.90;;;;;;4995447;28;20058;-84
2021/12/05 06:49:52;;;;;;;25.48;4.20;;;8.80;99.90;;;;;;4990503;28;20051;-80
2021/12/05 06:52:39;;;;;;;26.85;3.80;;;8.80;99.90;;;;;;5002522;28;20133;-79
2021/12/05 06:55:06;;;;;;;26.88;3.67;;;8.90;99.90;;;;;;4993737;28;20058;-80
2021/12/05 06:57:33;;;;;;;27.08;3.80;;;8.90;99.90;;;;;;4991843;28;20042;-83
2021/12/05 07:00:01;;;;;;;26.45;3.70;;;8.90;99.90;;;;;;4992982;28;20062;-79
2021/12/05 07:02:28;;;;;;;34.53;4.43;;;9.00;99.90;;;;;;4993522;28;20572;-80
2021/12/05 07:07:37;;;;;;;33.27;3.70;;;9.00;99.90;;;;;;4988069;28;20614;-82
2021/12/05 07:10:07;;;;;;;40.53;4.93;;;8.90;99.90;;;;;;4993463;28;20050;-79
2021/12/05 07:23:56;;;;;;;40.85;6.15;;;9.10;99.90;;;;;;4953283;29;20055;-80
2021/12/05 07:42:44;;;;;;;32.15;4.55;;;8.90;99.90;;;;;;4993755;28;20046;-80
2021/12/05 07:45:16;;;;;;;26.58;3.50;;;9.00;99.90;;;;;;4992425;28;20442;-81
2021/12/05 07:47:46;;;;;;;28.42;4.45;;;9.10;99.90;;;;;;4992509;28;20474;-80
2021/12/05 07:50:14;;;;;;;33.22;5.03;;;9.10;99.90;;;;;;4992196;28;20051;-81
2021/12/05 07:52:45;;;;;;;39.33;4.28;;;9.10;99.90;;;;;;4992616;28;20057;-80
2021/12/05 07:55:39;;;;;;;29.92;3.90;;;9.20;99.90;;;;;;4987204;28;20121;-81
2021/12/05 07:58:31;;;;;;;31.25;4.78;;;9.20;99.90;;;;;;4974151;28;20102;-80
2021/12/05 08:14:32;;;;;;;37.53;4.63;;;9.10;99.90;;;;;;4993070;28;20047;-80
2021/12/05 08:14:52;;;;;;;38.03;5.40;;;9.10;99.90;;;;;;4973855;28;20101;-80
2021/12/05 08:17:20;;;;;;;39.75;4.78;;;9.10;99.90;;;;;;5000501;28;20065;-80
2021/12/05 08:19:47;;;;;;;19.67;3.67;;;8.90;99.90;;;;;;4992031;28;20097;-80
2021/12/05 08:22:16;;;;;;;26.40;3.63;;;8.70;99.90;;;;;;4988600;28;20055;-81
2021/12/05 08:24:46;;;;;;;33.25;4.30;;;8.50;99.90;;;;;;5005025;28;20125;-80
2021/12/05 08:27:15;;;;;;;32.22;4.88;;;8.40;99.90;;;;;;5004375;28;20054;-81
2021/12/05 08:29:51;;;;;;;35.08;4.55;;;8.40;99.90;;;;;;4992162;28;20494;-80
2021/12/05 08:43:41;;;;;;;30.02;5.28;;;9.00;99.90;;;;;;4987234;28;20086;-81
2021/12/05 09:08:45;;;;;;;33.13;3.58;;;9.20;99.90;;;;;;4994708;28;20055;-86
2021/12/05 10:38:31;;;;;;;21.23;3.15;;;7.70;99.90;;;;;;4977020;28;20646;-79
2021/12/05 10:42:00;;;;;;;27.98;3.10;;;8.00;99.90;;;;;;4989708;28;20065;-79
2021/12/05 10:44:07;;;;;;;22.83;2.85;;;8.30;99.90;;;;;;4982879;28;20062;-79
2021/12/05 10:46:35;;;;;;;21.25;2.58;;;8.60;99.90;;;;;;4975654;28;20098;-78
2021/12/05 10:49:05;;;;;;;21.40;2.95;;;8.90;99.90;;;;;;4986173;28;20097;-78
2021/12/05 10:52:03;;;;;;;22.25;3.75;;;9.00;99.90;;;;;;4992408;28;20097;-77
2021/12/05 10:54:30;;;;;;;22.15;2.97;;;9.00;99.90;;;;;;4991700;28;20462;-78
2021/12/05 10:57:03;;;;;;;25.52;3.17;;;8.90;99.90;;;;;;4994350;28;20081;-79
2021/12/05 10:59:39;;;;;;;17.70;2.95;;;8.60;99.90;;;;;;4999567;28;20058;-78
2021/12/05 11:02:17;;;;;;;16.63;2.92;;;8.60;99.90;;;;;;5001075;28;20058;-78
2021/12/05 11:04:49;;;;;;;28.98;3.13;;;8.80;99.90;;;;;;4999424;28;20056;-78
2021/12/05 11:07:21;;;;;;;16.85;2.78;;;8.90;99.90;;;;;;4990870;28;20046;-78
2021/12/05 11:09:57;;;;;;;9.93;1.83;;;8.90;99.90;;;;;;4982179;28;20051;-80
2021/12/05 11:12:33;;;;;;;18.42;3.67;;;8.90;99.90;;;;;;4986115;28;20640;-80
2021/12/05 11:15:14;;;;;;;20.13;4.22;;;8.90;99.90;;;;;;4991054;28;20061;-80
2021/12/05 11:17:43;;;;;;;19.50;2.63;;;8.90;99.90;;;;;;4986629;28;20057;-80
2021/12/05 11:20:21;;;;;;;14.55;3.28;;;8.80;99.90;;;;;;4984289;28;20431;-81
2021/12/05 11:22:50;;;;;;;15.20;3.28;;;8.60;99.90;;;;;;4984975;28;20518;-81
2021/12/05 11:25:24;;;;;;;14.55;2.60;;;8.50;99.90;;;;;;4978266;28;20437;-79
2021/12/05 11:27:55;;;;;;;16.73;2.55;;;8.40;99.90;;;;;;4992286;28;20050;-77
2021/12/05 11:30:31;;;;;;;14.52;2.30;;;8.10;99.90;;;;;;4993411;28;20046;-78
2021/12/05 11:33:06;;;;;;;14.73;2.63;;;7.90;99.90;;;;;;4994188;28;20104;-79
2021/12/05 11:35:43;;;;;;;15.05;2.03;;;7.90;99.90;;;;;;4991116;28;20057;-79
2021/12/05 11:38:13;;;;;;;8.85;2.25;;;7.80;99.90;;;;;;4991263;28;20051;-79
2021/12/05 11:40:43;;;;;;;14.00;2.25;;;7.80;99.90;;;;;;4990934;28;20046;-79
2021/12/05 11:43:14;;;;;;;16.40;3.65;;;7.80;99.90;;;;;;5003566;28;20046;-80
2021/12/05 11:46:12;;;;;;;18.75;2.33;;;7.80;99.90;;;;;;4994787;28;20502;-78
2021/12/05 11:48:57;;;;;;;14.55;2.42;;;7.80;99.90;;;;;;4994070;28;20066;-81
2021/12/05 11:51:41;;;;;;;17.13;3.65;;;7.80;99.90;;;;;;4994174;28;20159;-79
2021/12/05 11:54:28;;;;;;;13.90;2.30;;;7.70;99.90;;;;;;4995903;28;20557;-82
2021/12/05 11:57:20;;;;;;;7.53;1.60;;;7.50;99.90;;;;;;4997873;28;20085;-80
2021/12/05 12:00:00;;;;;;;13.45;2.08;;;7.50;99.90;;;;;;4994920;28;20133;-78
2021/12/05 12:02:33;;;;;;;14.32;1.95;;;7.60;99.90;;;;;;4994538;28;20058;-79
2021/12/05 12:05:04;;;;;;;22.40;2.85;;;7.90;99.90;;;;;;4992078;28;20841;-79
2021/12/05 12:07:39;;;;;;;15.50;2.10;;;8.00;99.90;;;;;;4991897;28;20526;-80
2021/12/05 12:10:05;;;;;;;11.05;2.03;;;8.00;99.90;;;;;;4993154;28;20101;-79
2021/12/05 12:12:32;;;;;;;13.10;2.08;;;8.00;99.90;;;;;;4993069;28;20101;-78
2021/12/05 12:15:00;;;;;;;7.75;1.75;;;7.90;99.90;;;;;;4989456;28;20054;-80
2021/12/05 12:17:27;;;;;;;22.38;2.42;;;7.90;99.90;;;;;;4989549;28;20058;-81
2021/12/05 12:19:55;;;;;;;20.17;2.97;;;8.00;99.90;;;;;;4999668;28;20101;-79
2021/12/05 12:22:26;;;;;;;11.18;2.78;;;8.20;99.90;;;;;;4983463;28;20101;-81
2021/12/05 12:25:02;;;;;;;13.60;2.33;;;8.60;99.90;;;;;;4984427;28;20059;-80
2021/12/05 12:27:29;;;;;;;13.30;2.07;;;8.90;99.90;;;;;;5000513;28;20055;-82
2021/12/05 12:29:59;;;;;;;12.30;1.50;;;9.00;99.90;;;;;;4982214;28;20101;-80
2021/12/05 12:32:34;;;;;;;12.25;2.17;;;8.80;99.90;;;;;;4990529;28;20110;-78
2021/12/05 12:35:06;;;;;;;;;;;8.90;99.90;;;;;;4986677;28;20563;-80
2021/12/05 12:37:55;;;;;;;15.82;3.25;;;8.90;99.90;;;;;;4988203;28;19929;-81
2021/12/05 12:41:03;;;;;;;13.27;2.05;;;8.90;99.90;;;;;;4982551;28;20059;-80
2021/12/05 12:43:51;;;;;;;15.40;1.98;;;9.00;99.90;;;;;;4976428;28;20161;-79
2021/12/05 12:46:40;;;;;;;11.45;1.65;;;9.20;99.90;;;;;;4985086;28;20050;-80
2021/12/05 12:49:16;;;;;;;13.52;2.00;;;9.40;99.90;;;;;;4982785;28;20070;-80
2021/12/05 12:52:02;;;;;;;11.37;2.03;;;9.60;99.90;;;;;;4984523;28;20085;-79
2021/12/05 12:54:34;;;;;;;10.27;1.80;;;9.70;99.90;;;;;;4978463;28;20293;-80
2021/12/05 12:57:20;;;;;;;18.98;1.92;;;9.80;99.90;;;;;;4981661;28;20462;-79
2021/12/05 13:00:00;;;;;;;7.97;1.73;;;9.80;99.90;;;;;;4985189;28;20047;-80
2021/12/05 13:02:48;;;;;;;11.15;1.73;;;9.70;99.90;;;;;;4984960;28;20509;-79
2021/12/05 13:05:51;;;;;;;8.77;1.50;;;9.40;99.90;;;;;;4983369;28;20438;-79
2021/12/05 13:11:17;;;;;;;13.02;2.08;;;9.60;99.90;;;;;;4991495;28;20461;-79
2021/12/05 13:13:56;;;;;;;15.38;2.30;;;9.70;99.90;;;;;;4999823;28;20101;-81
2021/12/05 13:16:29;;;;;;;9.50;1.85;;;9.90;99.90;;;;;;4984548;28;20100;-80
2021/12/05 13:19:05;;;;;;;10.55;2.00;;;9.90;99.90;;;;;;4980329;28;20046;-81
2021/12/05 13:21:38;;;;;;;10.93;1.55;;;9.90;99.90;;;;;;4988382;28;20125;-78
2021/12/05 13:24:25;;;;;;;10.25;1.45;;;9.70;99.90;;;;;;4989287;28;20464;-80
2021/12/05 13:27:04;;;;;;;10.20;1.63;;;9.50;99.90;;;;;;4991334;28;20053;-78
2021/12/05 13:29:49;;;;;;;8.18;1.17;;;9.40;99.90;;;;;;4992886;28;20054;-84
2021/12/05 13:32:25;;;;;;;9.65;1.40;;;9.40;99.90;;;;;;4994325;28;20133;-78
2021/12/05 13:35:12;;;;;;;8.23;1.73;;;9.40;99.90;;;;;;4993978;28;20057;-79
2021/12/05 13:37:48;;;;;;;9.65;1.50;;;9.30;99.90;;;;;;4992768;28;20054;-78
2021/12/05 13:40:22;;;;;;;10.38;1.60;;;9.30;99.90;;;;;;4993641;28;20159;-79
2021/12/05 13:42:56;;;;;;;10.32;1.60;;;9.30;99.90;;;;;;4992666;28;20451;-78
2021/12/05 13:45:26;;;;;;;9.55;2.20;;;9.30;99.90;;;;;;4993989;28;20058;-80
2021/12/05 13:47:57;;;;;;;13.50;3.25;;;9.30;99.90;;;;;;4994773;28;20062;-78
2021/12/05 13:50:29;;;;;;;25.30;2.40;;;9.30;99.90;;;;;;4993793;28;20054;-78
2021/12/05 13:53:17;;;;;;;7.57;2.35;;;9.20;99.90;;;;;;4990936;28;20058;-78
2021/12/05 13:55:50;;;;;;;14.70;2.60;;;9.30;99.90;;;;;;4974573;28;20062;-79
2021/12/05 13:58:32;;;;;;;17.45;2.03;;;9.30;99.90;;;;;;4980551;28;20043;-77
2021/12/05 14:01:15;;;;;;;16.92;1.65;;;9.30;99.90;;;;;;4993801;28;20062;-79
2021/12/05 14:03:48;;;;;;;12.15;2.30;;;9.40;99.90;;;;;;4994377;28;20058;-77
2021/12/05 14:06:43;;;;;;;13.02;1.90;;;9.40;99.90;;;;;;4987562;28;20047;-78
2021/12/05 14:09:13;;;;;;;11.50;2.00;;;9.40;99.90;;;;;;4993682;28;20498;-78
2021/12/05 14:11:53;;;;;;;13.45;1.92;;;9.40;99.90;;;;;;4993546;28;20050;-75
2021/12/05 14:14:35;;;;;;;14.15;2.05;;;9.40;99.90;;;;;;4996128;28;20050;-77
2021/12/05 14:17:26;;;;;;;15.73;2.00;;;9.40;99.90;;;;;;4994764;28;20054;-80
2021/12/05 14:20:01;;;;;;;15.30;2.25;;;9.30;99.90;;;;;;4993652;28;20242;-78
2021/12/05 14:22:32;;;;;;;20.67;2.20;;;9.30;99.90;;;;;;4989425;28;20061;-78
2021/12/05 14:25:04;;;;;;;9.30;1.88;;;9.30;99.90;;;;;;4983407;28;20465;-78
2021/12/05 14:27:36;;;;;;;8.98;1.35;;;9.20;99.90;;;;;;4984145;28;20050;-78
2021/12/05 14:30:10;;;;;;;11.57;2.10;;;9.20;99.90;;;;;;4986525;28;20042;-77
2021/12/05 14:32:41;;;;;;;11.48;2.10;;;9.10;99.90;;;;;;4981457;28;20093;-80
2021/12/05 14:35:12;;;;;;;9.25;1.50;;;9.10;99.90;;;;;;4989772;28;20047;-79
2021/12/05 14:37:42;;;;;;;14.52;2.10;;;9.10;99.90;;;;;;4985231;28;20507;-78
2021/12/05 14:40:16;;;;;;;13.95;2.03;;;9.10;99.90;;;;;;5009010;28;20101;-80
2021/12/05 14:42:47;;;;;;;13.95;2.00;;;9.10;99.90;;;;;;4995414;28;20066;-80
2021/12/05 14:45:26;;;;;;;11.80;1.90;;;9.00;99.90;;;;;;4994184;28;20046;-79
2021/12/05 14:47:56;;;;;;;9.63;1.52;;;9.00;99.90;;;;;;4993186;28;20062;-82
2021/12/05 14:50:40;;;;;;;13.10;2.90;;;9.00;99.90;;;;;;5001853;28;20050;-79
2021/12/05 14:53:12;;;;;;;12.85;1.83;;;9.00;99.90;;;;;;4998130;28;20411;-78
2021/12/05 14:55:39;;;;;;;13.18;1.77;;;9.00;99.90;;;;;;4996651;28;20047;-78
2021/12/05 14:58:08;;;;;;;14.50;2.15;;;8.90;99.90;;;;;;4991278;28;20098;-80
2021/12/05 15:00:38;;;;;;;13.80;1.77;;;8.80;99.90;;;;;;5003854;28;20506;-79
2021/12/05 15:03:17;;;;;;;11.80;2.08;;;8.80;99.90;;;;;;5012260;28;20137;-80
2021/12/05 15:05:57;;;;;;;11.40;2.47;;;8.80;99.90;;;;;;4992850;28;20448;-78
2021/12/05 15:08:30;;;;;;;11.05;1.73;;;8.80;99.90;;;;;;4992946;28;20529;-80
2021/12/05 15:11:00;;;;;;;13.43;1.70;;;8.80;99.90;;;;;;4989743;28;20082;-78
2021/12/05 15:13:28;;;;;;;15.52;2.05;;;8.80;99.90;;;;;;4989061;28;20051;-78
2021/12/05 15:15:57;;;;;;;10.43;1.90;;;8.80;99.90;;;;;;4989398;28;20058;-80
2021/12/05 15:18:32;;;;;;;11.82;1.63;;;8.80;99.90;;;;;;4992924;28;20388;-78
2021/12/05 15:21:01;;;;;;;12.00;1.45;;;8.80;99.90;;;;;;5001697;28;20506;-78
2021/12/05 15:23:31;;;;;;;7.13;1.67;;;8.90;99.90;;;;;;4992518;28;20063;-79
2021/12/05 15:26:01;;;;;;;8.05;1.92;;;8.90;99.90;;;;;;4989423;28;20054;-79
2021/12/05 15:28:28;;;;;;;14.18;2.22;;;8.90;99.90;;;;;;4986409;28;20126;-78
2021/12/05 15:30:55;;;;;;;13.80;1.92;;;9.00;99.90;;;;;;4992976;28;20415;-77
2021/12/05 15:33:28;;;;;;;17.20;2.85;;;9.00;99.90;;;;;;4987847;28;20050;-79
2021/12/05 15:35:58;;;;;;;16.65;2.63;;;9.00;99.90;;;;;;4995646;28;20046;-77
2021/12/05 15:38:29;;;;;;;21.75;2.53;;;9.00;99.90;;;;;;4988288;28;20419;-77
2021/12/05 15:41:04;;;;;;;19.67;3.25;;;9.10;99.90;;;;;;4992887;28;20051;-79
2021/12/05 15:43:34;;;;;;;22.10;2.38;;;9.00;99.90;;;;;;4972526;28;20065;-80
2021/12/05 15:46:11;;;;;;;26.80;2.78;;;9.00;99.90;;;;;;4975107;28;20073;-77
2021/12/05 15:48:38;;;;;;;11.20;2.13;;;9.00;99.90;;;;;;4991781;28;20510;-76
2021/12/05 15:51:10;;;;;;;22.08;2.70;;;9.00;99.90;;;;;;4993070;28;20046;-76
2021/12/05 15:53:39;;;;;;;18.85;2.72;;;9.00;99.90;;;;;;4994568;28;20050;-78
2021/12/05 15:56:09;;;;;;;21.15;3.15;;;8.90;99.90;;;;;;4990168;28;20529;-79
2021/12/05 15:59:00;;;;;;;17.88;2.33;;;9.00;99.90;;;;;;4978477;28;20609;-80
2021/12/05 16:01:28;;;;;;;18.77;2.90;;;9.00;99.90;;;;;;4992048;28;20514;-80
2021/12/05 16:04:00;;;;;;;23.05;2.42;;;9.00;99.90;;;;;;4990256;28;20053;-79
2021/12/05 16:06:38;;;;;;;17.25;2.72;;;8.70;99.90;;;;;;4986459;28;20116;-79
2021/12/05 16:09:14;;;;;;;24.60;4.07;;;8.40;99.90;;;;;;4971640;28;20085;-80
2021/12/05 16:11:41;;;;;;;21.15;3.38;;;8.40;99.90;;;;;;4974025;28;20047;-80
2021/12/05 16:14:08;;;;;;;24.38;4.00;;;8.50;99.90;;;;;;4987335;28;20455;-80
2021/12/05 16:16:36;;;;;;;24.13;3.20;;;8.50;99.90;;;;;;4987725;28;20110;-79
2021/12/05 16:19:09;;;;;;;18.52;2.75;;;8.60;99.90;;;;;;4987262;28;20042;-78
2021/12/05 16:21:38;;;;;;;22.95;2.83;;;8.70;99.90;;;;;;4996497;28;20090;-81
2021/12/05 16:24:15;;;;;;;20.80;3.67;;;8.70;99.90;;;;;;4990973;28;20050;-77
2021/12/05 16:26:44;;;;;;;29.35;3.28;;;8.70;99.90;;;;;;4989395;28;20046;-76
2021/12/05 16:29:15;;;;;;;22.20;3.63;;;8.70;99.90;;;;;;4971797;28;20175;-78
2021/12/05 16:31:48;;;;;;;25.33;3.97;;;8.60;99.90;;;;;;4971112;28;20101;-78
2021/12/05 16:34:22;;;;;;;21.60;3.55;;;8.60;99.90;;;;;;4990624;28;20560;-79
2021/12/05 16:36:56;;;;;;;17.48;3.25;;;8.70;99.90;;;;;;4980803;28;20067;-77
2021/12/05 16:39:43;;;;;;;31.75;3.58;;;8.80;99.90;;;;;;4971967;28;20109;-78
2021/12/05 16:42:22;;;;;;;24.52;4.55;;;8.70;99.90;;;;;;4978543;28;20450;-76
2021/12/05 16:44:53;;;;;;;23.30;4.07;;;8.70;99.90;;;;;;4976060;28;20055;-78
2021/12/05 16:47:24;;;;;;;25.52;3.25;;;8.80;99.90;;;;;;4972935;28;20094;-78
2021/12/05 16:49:54;;;;;;;24.05;3.88;;;8.70;99.90;;;;;;4971381;28;20097;-77
2021/12/05 16:52:39;;;;;;;27.30;3.17;;;8.60;99.90;;;;;;4987369;28;20047;-77
2021/12/05 16:55:20;;;;;;;33.85;4.72;;;8.60;99.90;;;;;;4988179;28;20047;-76
2021/12/05 16:57:57;;;;;;;17.05;2.70;;;8.60;99.90;;;;;;4994128;28;20514;-78
2021/12/05 17:00:27;;;;;;;18.75;3.05;;;8.70;99.90;;;;;;4987662;28;20137;-78
2021/12/05 17:03:00;;;;;;;18.58;2.95;;;8.70;99.90;;;;;;4971357;28;20451;-79
2021/12/05 17:05:44;;;;;;;20.95;3.13;;;8.70;99.90;;;;;;4987925;28;20109;-78
2021/12/05 17:08:14;;;;;;;26.95;3.30;;;8.70;99.90;;;;;;5004062;28;20073;-76
2021/12/05 17:10:48;;;;;;;18.17;2.50;;;8.70;99.90;;;;;;5002760;28;20058;-77
2021/12/05 17:13:44;;;;;;;25.35;3.33;;;8.80;99.90;;;;;;4977364;28;20106;-75
2021/12/05 17:16:18;;;;;;;18.83;3.97;;;8.80;99.90;;;;;;4986678;28;20047;-78
2021/12/05 17:18:47;;;;;;;18.48;3.00;;;8.90;99.90;;;;;;4986100;28;20078;-78
2021/12/05 17:21:18;;;;;;;19.23;3.55;;;8.90;99.90;;;;;;4991020;28;20046;-77
2021/12/05 17:23:48;;;;;;;16.65;2.58;;;8.80;99.90;;;;;;4990190;28;20209;-77
2021/12/05 17:26:42;;;;;;;23.38;2.88;;;8.70;99.90;;;;;;4990557;28;20419;-77
2021/12/05 17:29:19;;;;;;;24.65;3.75;;;8.60;99.90;;;;;;4995377;28;20116;-78
2021/12/05 17:32:04;;;;;;;25.40;3.88;;;8.50;99.90;;;;;;4996824;28;20063;-78
2021/12/05 17:34:40;;;;;;;22.75;3.05;;;8.40;99.90;;;;;;4974892;28;20121;-78
2021/12/05 17:37:26;;;;;;;19.45;3.10;;;8.50;99.90;;;;;;4975026;28;20133;-78
2021/12/05 17:39:54;;;;;;;26.42;2.97;;;8.60;99.90;;;;;;4982097;28;20137;-78
2021/12/05 17:42:24;;;;;;;21.08;2.90;;;8.70;99.90;;;;;;4990994;28;20074;-78
2021/12/05 17:44:55;;;;;;;25.30;4.40;;;8.70;99.90;;;;;;4994653;28;20097;-77
2021/12/05 17:47:24;;;;;;;21.00;2.33;;;8.50;99.90;;;;;;4999548;28;20116;-78
2021/12/05 17:49:54;;;;;;;23.60;3.03;;;8.40;99.90;;;;;;4993767;28;20495;-77
2021/12/05 17:52:26;;;;;;;24.92;3.38;;;8.40;99.90;;;;;;4991672;28;20054;-78
2021/12/05 17:57:36;;;;;;;20.95;2.75;;;8.50;99.90;;;;;;4991430;28;20046;-78
2021/12/05 18:02:47;;;;;;;29.40;4.75;;;8.50;99.90;;;;;;4994864;28;20104;-77
2021/12/05 18:05:21;;;;;;;22.45;3.97;;;8.50;99.90;;;;;;4993874;28;20054;-77
2021/12/05 18:07:52;;;;;;;31.23;4.70;;;8.60;99.90;;;;;;4989574;28;20047;-80
2021/12/05 18:10:21;;;;;;;16.90;3.05;;;8.60;99.90;;;;;;4993909;28;20047;-77
2021/12/05 18:12:52;;;;;;;19.17;2.70;;;8.70;99.90;;;;;;4987839;28;20082;-77
2021/12/05 18:15:47;;;;;;;23.90;3.33;;;8.60;99.90;;;;;;4991403;28;20047;-77
2021/12/05 18:18:16;;;;;;;20.38;3.40;;;8.70;99.90;;;;;;5000567;28;20220;-78
2021/12/05 18:20:43;;;;;;;17.25;3.63;;;8.70;99.90;;;;;;4972569;28;20082;-77
2021/12/05 18:23:12;;;;;;;26.42;3.55;;;8.80;99.90;;;;;;4984230;28;20051;-78
2021/12/05 18:25:41;;;;;;;24.40;3.20;;;8.90;99.90;;;;;;4989984;28;20046;-77
2021/12/05 18:28:08;;;;;;;15.13;3.17;;;8.80;99.90;;;;;;4997454;28;20475;-78
2021/12/05 18:30:38;;;;;;;27.73;3.28;;;8.60;99.90;;;;;;4977884;28;20050;-78
2021/12/05 18:33:08;;;;;;;22.05;3.47;;;8.50;99.90;;;;;;4999904;28;20047;-79
2021/12/05 18:35:36;;;;;;;20.88;3.20;;;8.40;99.90;;;;;;4978295;28;20072;-79
2021/12/05 18:38:07;;;;;;;23.50;3.20;;;8.40;99.90;;;;;;4986812;28;20042;-78
2021/12/05 18:40:36;;;;;;;26.85;3.88;;;8.60;99.90;;;;;;4987662;28;20046;-79
2021/12/05 18:43:04;;;;;;;19.38;3.33;;;8.70;99.90;;;;;;4988965;28;20062;-77
2021/12/05 18:45:35;;;;;;;14.68;2.53;;;8.70;99.90;;;;;;4987133;28;20108;-78
2021/12/05 18:48:02;;;;;;;29.30;4.75;;;8.80;99.90;;;;;;4992338;28;20066;-77
2021/12/05 18:50:29;;;;;;;16.63;3.00;;;8.90;99.90;;;;;;4982801;28;20097;-77
2021/12/05 18:52:56;;;;;;;18.60;2.30;;;8.90;99.90;;;;;;4997076;28;20106;-78